createdAt,value
2018-07-03T00:00:52.808Z,100660.45
2018-07-03T00:03:21.744Z,100660.22
2018-07-03T00:05:50.268Z,100662.12
2018-07-03T00:08:19.311Z,100662.05
2018-07-03T00:10:47.935Z,100664.67
2018-07-03T00:13:16.489Z,100663.05
2018-07-03T00:15:45.030Z,100663.14
2018-07-03T00:18:13.550Z,100666.80
2018-07-03T00:20:42.058Z,100659.98
2018-07-03T00:23:10.754Z,100657.56
2018-07-03T00:25:39.272Z,100659.01
2018-07-03T00:28:07.860Z,100658.22
2018-07-03T00:30:36.631Z,100654.09
2018-07-03T00:33:05.127Z,100657.33
2018-07-03T00:35:33.639Z,100653.78
2018-07-03T00:38:02.114Z,100655.11
2018-07-03T00:40:30.925Z,100650.83
2018-07-03T00:42:59.422Z,100650.60
2018-07-03T00:45:28.030Z,100651.97
2018-07-03T00:47:56.629Z,100654.78
2018-07-03T00:50:25.122Z,100651.68
2018-07-03T00:52:53.877Z,100654.67
2018-07-03T00:55:22.404Z,100651.30
2018-07-03T00:57:50.874Z,100650.34
2018-07-03T01:00:31.428Z,100649.89
2018-07-03T01:03:00.570Z,100649.70
2018-07-03T01:05:29.331Z,100649.28
2018-07-03T01:07:58.404Z,100650.98
2018-07-03T01:10:27.781Z,100653.14
2018-07-03T01:12:56.778Z,100658.09
2018-07-03T01:15:26.299Z,100665.50
2018-07-03T01:17:54.894Z,100684.85
2018-07-03T01:20:23.427Z,100686.84
2018-07-03T01:22:52.243Z,100681.41
2018-07-03T01:25:20.812Z,100689.20
2018-07-03T01:27:49.328Z,100690.09
2018-07-03T01:30:18.569Z,100692.48
2018-07-03T01:32:47.260Z,100684.37
2018-07-03T01:35:16.091Z,100689.43
2018-07-03T01:37:46.448Z,100687.39
2018-07-03T01:40:15.026Z,100689.69
2018-07-03T01:42:43.454Z,100694.45
2018-07-03T01:45:12.280Z,100690.48
2018-07-03T01:47:40.840Z,100684.81
2018-07-03T01:50:09.412Z,100679.48
2018-07-03T01:52:37.923Z,100682.48
2018-07-03T01:55:07.017Z,100688.66
2018-07-03T01:57:36.107Z,100690.50
2018-07-03T02:00:05.470Z,100685.73
2018-07-03T02:02:34.055Z,100680.69
2018-07-03T02:05:02.593Z,100676.92
2018-07-03T02:07:31.175Z,100683.97
2018-07-03T02:09:59.886Z,100679.78
2018-07-03T02:12:28.544Z,100674.90
2018-07-03T02:14:57.059Z,100672.45
2018-07-03T02:17:25.568Z,100666.82
2018-07-03T02:19:54.153Z,100663.58
2018-07-03T02:22:22.663Z,100662.64
2018-07-03T02:24:51.251Z,100659.42
2018-07-03T02:27:19.949Z,100656.59
2018-07-03T02:29:48.467Z,100652.54
2018-07-03T02:32:17.024Z,100646.20
2018-07-03T02:34:45.550Z,100642.02
2018-07-03T02:37:14.176Z,100649.77
2018-07-03T02:39:42.899Z,100651.63
2018-07-03T02:42:11.343Z,100657.73
2018-07-03T02:44:39.935Z,100653.70
2018-07-03T02:47:08.422Z,100657.52
2018-07-03T02:49:36.909Z,100661.50
2018-07-03T02:52:05.485Z,100650.53
2018-07-03T02:54:33.997Z,100652.20
2018-07-03T02:57:02.929Z,100650.19
2018-07-03T02:59:31.387Z,100641.34
2018-07-03T03:01:59.950Z,100643.08
2018-07-03T03:04:28.659Z,100642.74
2018-07-03T03:06:57.187Z,100635.87
2018-07-03T03:09:25.747Z,100638.50
2018-07-03T03:11:54.476Z,100633.45
2018-07-03T03:14:23.062Z,100638.25
2018-07-03T03:16:52.057Z,100643.56
2018-07-03T03:19:20.569Z,100646.66
2018-07-03T03:21:49.227Z,100638.09
2018-07-03T03:24:17.809Z,100637.19
2018-07-03T03:26:46.569Z,100638.89
2018-07-03T03:29:15.082Z,100640.20
2018-07-03T03:31:43.665Z,100635.05
2018-07-03T03:34:12.397Z,100635.55
2018-07-03T03:36:40.906Z,100637.94
2018-07-03T03:39:09.720Z,100631.91
2018-07-03T03:41:38.287Z,100637.05
2018-07-03T03:44:06.799Z,100633.25
2018-07-03T03:46:35.681Z,100634.53
2018-07-03T03:49:04.425Z,100633.67
2018-07-03T03:51:32.936Z,100637.08
2018-07-03T03:54:01.531Z,100636.66
2018-07-03T03:56:30.029Z,100632.86
2018-07-03T03:58:58.553Z,100633.20
2018-07-03T04:01:27.271Z,100633.22
2018-07-03T04:03:55.799Z,100639.63
2018-07-03T04:06:24.738Z,100636.94
2018-07-03T04:08:53.342Z,100636.58
2018-07-03T04:11:21.895Z,100638.61
2018-07-03T04:13:50.396Z,100640.80
2018-07-03T04:16:18.925Z,100641.13
2018-07-03T04:18:47.617Z,100645.71
2018-07-03T04:21:46.719Z,100644.37
2018-07-03T04:24:15.221Z,100645.66
2018-07-03T04:26:43.788Z,100652.77
2018-07-03T04:29:12.238Z,100652.72
2018-07-03T04:31:40.896Z,100651.73
2018-07-03T04:34:09.433Z,100651.29
2018-07-03T04:36:37.979Z,100645.62
2018-07-03T04:39:08.952Z,100642.48
2018-07-03T04:41:38.452Z,100642.81
2018-07-03T04:44:07.913Z,100637.61
2018-07-03T04:46:36.497Z,100642.66
2018-07-03T04:49:05.177Z,100636.17
2018-07-03T04:51:33.800Z,100646.67
2018-07-03T04:54:02.860Z,100643.11
2018-07-03T04:56:31.756Z,100644.56
2018-07-03T04:59:00.624Z,100645.12
2018-07-03T05:01:29.342Z,100649.97
2018-07-03T05:03:58.180Z,100649.09
2018-07-03T05:06:26.821Z,100649.92
2018-07-03T05:08:55.355Z,100658.39
2018-07-03T05:11:23.980Z,100654.67
2018-07-03T05:13:52.704Z,100649.30
2018-07-03T05:16:21.311Z,100649.60
2018-07-03T05:18:50.011Z,100654.81
2018-07-03T05:21:18.839Z,100655.56
2018-07-03T05:23:47.480Z,100659.34
2018-07-03T05:26:16.131Z,100654.44
2018-07-03T05:28:44.712Z,100667.05
2018-07-03T05:31:13.211Z,100662.30
2018-07-03T05:33:41.978Z,100673.17
2018-07-03T05:36:10.533Z,100670.25
2018-07-03T05:38:39.036Z,100669.38
2018-07-03T05:41:07.594Z,100674.89
2018-07-03T05:43:36.148Z,100677.75
2018-07-03T05:46:04.986Z,100683.27
2018-07-03T05:48:33.769Z,100689.45
2018-07-03T05:51:02.452Z,100687.05
2018-07-03T05:53:31.086Z,100682.23
2018-07-03T05:55:59.588Z,100695.36
2018-07-03T05:58:28.131Z,100700.20
2018-07-03T06:00:56.598Z,100693.69
2018-07-03T06:03:25.099Z,100695.88
2018-07-03T06:05:53.696Z,100698.75
2018-07-03T06:08:22.228Z,100696.92
2018-07-03T06:10:50.975Z,100703.80
2018-07-03T06:13:19.906Z,100706.48
2018-07-03T06:15:48.487Z,100709.88
2018-07-03T06:18:17.033Z,100709.67
2018-07-03T06:20:45.601Z,100705.91
2018-07-03T06:23:14.194Z,100709.17
2018-07-03T06:25:43.059Z,100711.55
2018-07-03T06:28:11.626Z,100712.73
2018-07-03T06:30:41.795Z,100713.79
2018-07-03T06:33:10.931Z,100715.86
2018-07-03T06:35:39.464Z,100712.68
2018-07-03T06:38:07.955Z,100711.37
2018-07-03T06:40:36.433Z,100701.64
2018-07-03T06:43:05.047Z,100698.87
2018-07-03T06:45:33.912Z,100701.92
2018-07-03T06:48:02.501Z,100702.94
2018-07-03T06:50:31.046Z,100696.98
2018-07-03T06:52:59.967Z,100699.20
2018-07-03T06:55:28.688Z,100702.33
2018-07-03T06:57:57.275Z,100701.94
2018-07-03T07:00:25.793Z,100702.11
2018-07-03T07:02:54.275Z,100698.26
2018-07-03T07:05:22.808Z,100702.81
2018-07-03T07:07:51.634Z,100701.95
2018-07-03T07:10:20.293Z,100706.05
2018-07-03T07:12:48.814Z,100700.89
2018-07-03T07:15:17.387Z,100704.17
2018-07-03T07:17:45.995Z,100701.01
2018-07-03T07:20:14.462Z,100695.97
2018-07-03T07:22:42.932Z,100698.73
2018-07-03T07:25:11.469Z,100699.88
2018-07-03T07:27:40.008Z,100702.50
2018-07-03T07:30:08.635Z,100703.98
2018-07-03T07:32:37.213Z,100700.12
2018-07-03T07:35:06.004Z,100693.08
2018-07-03T07:37:34.722Z,100699.26
2018-07-03T07:40:03.331Z,100695.21
2018-07-03T07:42:32.096Z,100695.98
2018-07-03T07:45:00.690Z,100698.02
2018-07-03T07:47:29.228Z,100691.02
2018-07-03T07:49:57.954Z,100689.02
2018-07-03T07:52:26.558Z,100688.05
2018-07-03T07:54:55.096Z,100689.77
2018-07-03T07:57:23.666Z,100691.04
2018-07-03T07:59:52.251Z,100685.33
2018-07-03T08:02:20.757Z,100692.61
2018-07-03T08:04:49.305Z,100682.46
2018-07-03T08:07:18.078Z,100683.51
2018-07-03T08:09:46.621Z,100684.37
2018-07-03T08:12:15.086Z,100671.32
2018-07-03T08:14:43.637Z,100678.32
2018-07-03T08:17:12.264Z,100676.89
2018-07-03T08:19:40.954Z,100681.07
2018-07-03T08:22:09.534Z,100673.32
2018-07-03T08:24:38.064Z,100677.68
2018-07-03T08:27:06.856Z,100670.09
2018-07-03T08:29:35.392Z,100675.55
2018-07-03T08:32:03.942Z,100671.63
2018-07-03T08:34:32.474Z,100676.63
2018-07-03T08:37:01.146Z,100673.78
2018-07-03T08:39:29.709Z,100674.01
2018-07-03T08:41:58.333Z,100673.98
2018-07-03T08:44:26.834Z,100667.31
2018-07-03T08:46:55.438Z,100673.03
2018-07-03T08:49:23.994Z,100667.25
2018-07-03T08:51:52.778Z,100669.20
2018-07-03T08:54:21.283Z,100670.41
2018-07-03T08:56:49.820Z,100673.45
2018-07-03T08:59:18.493Z,100667.45
2018-07-03T09:01:47.118Z,100667.80
2018-07-03T09:04:15.814Z,100669.00
2018-07-03T09:06:44.398Z,100672.09
2018-07-03T09:09:13.142Z,100668.36
2018-07-03T09:11:41.712Z,100661.02
2018-07-03T09:14:10.531Z,100667.20
2018-07-03T09:16:39.437Z,100665.46
2018-07-03T09:19:08.307Z,100671.03
2018-07-03T09:21:36.749Z,100670.69
2018-07-03T09:24:05.271Z,100666.75
2018-07-03T09:26:33.846Z,100665.57
2018-07-03T09:29:02.355Z,100663.38
2018-07-03T09:31:30.966Z,100658.98
2018-07-03T09:33:59.872Z,100656.11
2018-07-03T09:36:28.429Z,100648.86
2018-07-03T09:38:57.072Z,100647.05
2018-07-03T09:41:25.677Z,100644.45
2018-07-03T09:43:54.181Z,100649.44
2018-07-03T09:46:22.907Z,100648.37
2018-07-03T09:48:51.498Z,100648.39
2018-07-03T09:51:20.039Z,100645.98
2018-07-03T09:53:48.907Z,100643.73
2018-07-03T09:56:17.483Z,100636.83
2018-07-03T09:58:46.077Z,100639.92
2018-07-03T10:01:20.080Z,100638.00
2018-07-03T10:03:48.904Z,100638.59
2018-07-03T10:06:17.889Z,100635.49
2018-07-03T10:08:46.486Z,100635.73
2018-07-03T10:11:15.361Z,100625.25
2018-07-03T10:13:43.914Z,100629.66
2018-07-03T10:16:12.590Z,100629.90
2018-07-03T10:18:41.233Z,100622.75
2018-07-03T10:21:10.015Z,100626.09
2018-07-03T10:23:38.522Z,100618.45
2018-07-03T10:26:07.103Z,100616.30
2018-07-03T10:28:36.142Z,100621.11
2018-07-03T10:31:04.764Z,100617.31
2018-07-03T10:33:33.570Z,100613.91
2018-07-03T10:36:02.325Z,100613.00
2018-07-03T10:38:30.911Z,100606.53
2018-07-03T10:40:59.580Z,100613.42
2018-07-03T10:43:28.161Z,100611.32
2018-07-03T10:45:56.717Z,100615.42
2018-07-03T10:48:25.631Z,100606.99
2018-07-03T10:50:54.206Z,100605.44
2018-07-03T10:53:23.020Z,100606.41
2018-07-03T10:55:51.643Z,100608.73
2018-07-03T10:58:20.290Z,100601.17
2018-07-03T11:00:48.881Z,100602.95
2018-07-03T11:03:17.497Z,100594.98
2018-07-03T11:05:46.073Z,100609.52
2018-07-03T11:08:14.723Z,100605.17
2018-07-03T11:10:43.654Z,100600.09
2018-07-03T11:13:12.258Z,100601.31
2018-07-03T11:15:41.110Z,100587.95
2018-07-03T11:18:09.867Z,100594.31
2018-07-03T11:20:38.476Z,100589.84
2018-07-03T11:23:07.088Z,100599.31
2018-07-03T11:25:36.309Z,100595.68
2018-07-03T11:28:05.129Z,100591.45
2018-07-03T11:30:33.792Z,100593.54
2018-07-03T11:33:02.574Z,100587.62
2018-07-03T11:35:31.427Z,100585.53
2018-07-03T11:37:59.851Z,100581.11
2018-07-03T11:40:36.043Z,100576.79
2018-07-03T11:43:08.829Z,100579.37
2018-07-03T11:45:37.391Z,100578.50
2018-07-03T11:48:06.310Z,100579.16
2018-07-03T11:50:34.937Z,100577.28
2018-07-03T11:53:03.635Z,100576.73
2018-07-03T11:55:32.128Z,100570.34
2018-07-03T11:58:01.060Z,100574.04
2018-07-03T12:00:29.576Z,100569.97
2018-07-03T12:02:58.190Z,100573.73
2018-07-03T12:05:26.662Z,100569.91
2018-07-03T12:07:55.590Z,100571.55
2018-07-03T12:10:24.266Z,100565.22
2018-07-03T12:12:52.823Z,100575.87
2018-07-03T12:15:21.351Z,100573.31
2018-07-03T12:17:50.071Z,100562.96
2018-07-03T12:20:18.713Z,100565.47
2018-07-03T12:22:47.247Z,100575.05
2018-07-03T12:25:16.040Z,100566.05
2018-07-03T12:27:44.634Z,100563.12
2018-07-03T12:30:13.684Z,100556.81
2018-07-03T12:32:42.225Z,100561.48
2018-07-03T12:35:11.483Z,100554.27
2018-07-03T12:37:40.086Z,100553.14
2018-07-03T12:40:08.657Z,100549.17
2018-07-03T12:42:37.273Z,100546.69
2018-07-03T12:45:06.229Z,100553.03
2018-07-03T12:47:34.816Z,100544.06
2018-07-03T12:50:03.577Z,100549.00
2018-07-03T12:52:32.102Z,100537.35
2018-07-03T12:55:00.643Z,100540.49
2018-07-03T12:57:29.219Z,100537.80
2018-07-03T12:59:57.829Z,100547.40
2018-07-03T13:02:26.382Z,100545.94
2018-07-03T13:04:54.929Z,100548.50
2018-07-03T13:07:23.533Z,100545.12
2018-07-03T13:09:52.098Z,100545.92
2018-07-03T13:12:20.773Z,100539.98
2018-07-03T13:14:49.356Z,100538.69
2018-07-03T13:17:17.969Z,100531.47
2018-07-03T13:19:46.515Z,100530.67
2018-07-03T13:22:15.023Z,100530.16
2018-07-03T13:24:43.756Z,100539.45
2018-07-03T13:27:12.456Z,100537.55
2018-07-03T13:29:40.935Z,100534.21
2018-07-03T13:32:09.509Z,100534.69
2018-07-03T13:34:37.991Z,100535.13
2018-07-03T13:37:06.567Z,100535.73
2018-07-03T13:39:35.146Z,100539.02
2018-07-03T13:42:03.990Z,100531.45
2018-07-03T13:44:32.516Z,100528.36
2018-07-03T13:47:01.149Z,100526.02
2018-07-03T13:49:29.905Z,100528.66
2018-07-03T13:51:58.502Z,100525.03
2018-07-03T13:54:27.219Z,100526.13
2018-07-03T13:56:55.962Z,100522.02
2018-07-03T13:59:24.767Z,100517.68
2018-07-03T14:01:53.383Z,100522.01
2018-07-03T14:04:21.976Z,100525.45
2018-07-03T14:06:50.557Z,100520.38
2018-07-03T14:09:19.058Z,100519.76
2018-07-03T14:11:47.622Z,100514.84
2018-07-03T14:14:16.143Z,100513.20
2018-07-03T14:16:44.594Z,100520.42
2018-07-03T14:19:15.718Z,100508.25
2018-07-03T14:21:44.191Z,100503.41
2018-07-03T14:24:13.044Z,100503.53
2018-07-03T14:26:41.651Z,100496.72
2018-07-03T14:29:10.374Z,100501.82
2018-07-03T14:31:38.916Z,100496.42
2018-07-03T14:34:07.609Z,100493.30
2018-07-03T14:36:36.396Z,100494.89
2018-07-03T14:39:09.304Z,100492.11
2018-07-03T14:41:37.768Z,100500.67
2018-07-03T14:44:06.794Z,100488.35
2018-07-03T14:46:35.423Z,100491.80
2018-07-03T14:49:04.524Z,100487.86
2018-07-03T14:51:33.108Z,100486.92
2018-07-03T14:54:01.719Z,100486.64
2018-07-03T14:56:30.709Z,100484.99
2018-07-03T14:58:59.701Z,100479.36
2018-07-03T15:01:28.502Z,100479.42
2018-07-03T15:03:57.074Z,100487.06
2018-07-03T15:06:26.025Z,100484.20
2018-07-03T15:08:54.783Z,100480.25
2018-07-03T15:11:23.400Z,100470.77
2018-07-03T15:13:52.181Z,100470.25
2018-07-03T15:16:21.061Z,100472.16
2018-07-03T15:18:54.898Z,100469.12
2018-07-03T15:21:23.640Z,100471.27
2018-07-03T15:23:52.242Z,100466.66
2018-07-03T15:26:21.179Z,100468.74
2018-07-03T15:28:50.537Z,100463.19
2018-07-03T15:31:19.135Z,100468.95
2018-07-03T15:33:47.841Z,100459.95
2018-07-03T15:36:16.695Z,100462.11
2018-07-03T15:38:45.577Z,100458.13
2018-07-03T15:41:14.235Z,100461.09
2018-07-03T15:43:52.880Z,100456.45
2018-07-03T15:46:21.689Z,100455.52
2018-07-03T15:48:50.366Z,100452.54
2018-07-03T15:51:18.956Z,100447.75
2018-07-03T15:53:47.637Z,100444.73
2018-07-03T15:56:16.947Z,100442.93
2018-07-03T15:58:45.623Z,100441.52
2018-07-03T16:01:14.200Z,100436.97
2018-07-03T16:03:53.054Z,100433.92
2018-07-03T16:06:33.199Z,100435.42
2018-07-03T16:09:08.413Z,100437.65
2018-07-03T16:11:37.827Z,100435.23
2018-07-03T16:14:06.484Z,100430.71
2018-07-03T16:16:35.036Z,100432.70
2018-07-03T16:19:08.895Z,100426.84
2018-07-03T16:21:37.497Z,100424.45
2018-07-03T16:24:06.795Z,100424.97
2018-07-03T16:26:35.439Z,100422.59
2018-07-03T16:29:05.225Z,100420.70
2018-07-03T16:31:33.704Z,100418.98
2018-07-03T16:34:02.689Z,100420.30
2018-07-03T16:36:31.278Z,100414.13
2018-07-03T16:38:59.956Z,100417.48
2018-07-03T16:41:28.551Z,100417.84
2018-07-03T16:43:57.038Z,100411.77
2018-07-03T16:46:25.703Z,100418.34
2018-07-03T16:48:54.699Z,100416.05
2018-07-03T16:51:23.219Z,100413.30
2018-07-03T16:53:51.716Z,100406.73
2018-07-03T16:56:20.342Z,100405.98
2018-07-03T16:58:49.342Z,100411.16
2018-07-03T17:01:18.059Z,100408.30
2018-07-03T17:03:46.838Z,100403.50
2018-07-03T17:06:15.668Z,100406.70
2018-07-03T17:08:44.098Z,100409.87
2018-07-03T17:11:12.860Z,100411.00
2018-07-03T17:13:41.432Z,100402.42
2018-07-03T17:16:10.094Z,100401.19
2018-07-03T17:18:42.914Z,100404.52
2018-07-03T17:21:11.427Z,100397.95
2018-07-03T17:23:40.007Z,100400.58
2018-07-03T17:26:08.969Z,100398.32
2018-07-03T17:28:37.726Z,100389.98
2018-07-03T17:31:06.528Z,100398.12
2018-07-03T17:33:35.478Z,100393.82
2018-07-03T17:36:04.535Z,100393.82
2018-07-03T17:38:33.063Z,100398.41
2018-07-03T17:41:12.900Z,100390.88
2018-07-03T17:44:04.791Z,100387.22
2018-07-03T17:46:33.427Z,100382.96
2018-07-03T17:49:01.944Z,100385.44
2018-07-03T17:51:30.643Z,100381.88
2018-07-03T17:53:59.619Z,100380.58
2018-07-03T17:56:28.784Z,100379.77
2018-07-03T17:58:57.534Z,100378.45
2018-07-03T18:01:26.235Z,100370.61
2018-07-03T18:03:55.047Z,100373.00
2018-07-03T18:06:23.881Z,100373.25
2018-07-03T18:08:52.621Z,100375.55
2018-07-03T18:11:21.877Z,100377.00
2018-07-03T18:13:50.546Z,100376.30
2018-07-03T18:16:19.753Z,100380.83
2018-07-03T18:19:50.899Z,100381.22
2018-07-03T18:22:19.670Z,100382.75
2018-07-03T18:24:48.334Z,100380.50
2018-07-03T18:27:17.296Z,100382.64
2018-07-03T18:29:46.004Z,100381.48
2018-07-03T18:32:14.537Z,100380.51
2018-07-03T18:34:43.045Z,100380.06
2018-07-03T18:37:11.518Z,100379.95
2018-07-03T18:39:40.290Z,100375.68
2018-07-03T18:42:09.099Z,100372.95
2018-07-03T18:44:38.110Z,100377.59
2018-07-03T18:47:06.711Z,100376.28
2018-07-03T18:49:35.316Z,100379.37
2018-07-03T18:52:04.220Z,100382.25
2018-07-03T18:54:32.737Z,100377.48
2018-07-03T18:57:01.337Z,100385.11
2018-07-03T18:59:29.814Z,100382.97
2018-07-03T19:01:58.563Z,100377.60
2018-07-03T19:04:27.285Z,100377.48
2018-07-03T19:06:56.234Z,100377.36
2018-07-03T19:09:24.719Z,100376.55
2018-07-03T19:11:53.493Z,100373.80
2018-07-03T19:14:22.455Z,100381.64
2018-07-03T19:16:51.063Z,100382.09
2018-07-03T19:19:19.562Z,100383.14
2018-07-03T19:21:48.177Z,100372.42
2018-07-03T19:24:16.989Z,100375.59
2018-07-03T19:26:45.610Z,100371.89
2018-07-03T19:29:14.177Z,100383.28
2018-07-03T19:31:43.001Z,100389.07
2018-07-03T19:34:11.642Z,100382.26
2018-07-03T19:36:40.152Z,100389.20
2018-07-03T19:39:11.103Z,100385.34
2018-07-03T19:41:40.761Z,100386.27
2018-07-03T19:44:09.539Z,100384.43
2018-07-03T19:46:38.220Z,100384.03
2018-07-03T19:49:07.130Z,100386.45
2018-07-03T19:51:36.110Z,100384.31
2018-07-03T19:54:04.782Z,100384.01
2018-07-03T19:56:36.254Z,100390.09
2018-07-03T19:59:04.896Z,100394.62
2018-07-03T20:01:33.703Z,100400.11
2018-07-03T20:04:02.607Z,100400.59
2018-07-03T20:06:31.251Z,100395.56
2018-07-03T20:08:59.774Z,100405.48
2018-07-03T20:11:28.357Z,100410.03
2018-07-03T20:13:57.818Z,100412.90
2018-07-03T20:16:26.790Z,100407.88
2018-07-03T20:18:55.982Z,100418.12
2018-07-03T20:21:24.651Z,100418.72
2018-07-03T20:23:53.242Z,100422.05
2018-07-03T20:26:21.995Z,100428.25
2018-07-03T20:28:50.839Z,100428.41
2018-07-03T20:31:19.448Z,100420.34
2018-07-03T20:33:50.863Z,100422.75
2018-07-03T20:36:20.526Z,100422.07
2018-07-03T20:38:52.544Z,100425.22
2018-07-03T20:41:23.149Z,100424.06
2018-07-03T20:43:53.619Z,100426.94
2018-07-03T20:46:23.418Z,100439.67
2018-07-03T20:48:53.332Z,100443.75
2018-07-03T20:51:22.636Z,100443.89
2018-07-03T20:53:51.484Z,100446.98
2018-07-03T20:56:22.663Z,100448.86
2018-07-03T20:58:53.329Z,100452.81
2018-07-03T21:01:22.362Z,100451.89
2018-07-03T21:03:54.055Z,100446.02
2018-07-03T21:06:23.646Z,100448.93
2018-07-03T21:08:54.719Z,100446.93
2018-07-03T21:11:23.470Z,100445.84
2018-07-03T21:13:53.259Z,100445.14
2018-07-03T21:16:22.270Z,100444.02
2018-07-03T21:18:51.561Z,100440.53
2018-07-03T21:21:20.547Z,100442.78
2018-07-03T21:23:49.133Z,100444.47
2018-07-03T21:26:17.614Z,100441.59
2018-07-03T21:28:46.543Z,100448.22
2018-07-03T21:31:15.104Z,100446.17
2018-07-03T21:33:44.238Z,100450.33
2018-07-03T21:36:12.970Z,100446.17
2018-07-03T21:38:41.745Z,100452.11
2018-07-03T21:41:10.406Z,100450.44
2018-07-03T21:43:39.009Z,100448.23
2018-07-03T21:46:07.481Z,100444.78
2018-07-03T21:48:36.385Z,100444.67
2018-07-03T21:51:05.382Z,100446.34
2018-07-03T21:53:33.963Z,100445.05
2018-07-03T21:56:02.497Z,100443.16
2018-07-03T21:58:31.081Z,100441.50
2018-07-03T22:00:59.757Z,100445.57
2018-07-03T22:03:28.445Z,100442.89
2018-07-03T22:05:57.044Z,100445.61
2018-07-03T22:08:25.634Z,100445.41
2018-07-03T22:10:54.210Z,100448.48
2018-07-03T22:13:22.758Z,100444.92
2018-07-03T22:15:51.324Z,100451.42
2018-07-03T22:18:19.922Z,100452.48
2018-07-03T22:20:48.550Z,100450.75
2018-07-03T22:23:17.171Z,100458.34
2018-07-03T22:25:45.702Z,100452.11
2018-07-03T22:28:14.201Z,100450.13
2018-07-03T22:30:42.694Z,100452.30
2018-07-03T22:33:11.107Z,100453.09
2018-07-03T22:35:39.589Z,100461.05
2018-07-03T22:38:08.049Z,100460.69
2018-07-03T22:40:36.425Z,100452.83
2018-07-03T22:43:04.889Z,100459.72
2018-07-03T22:45:33.248Z,100454.06
2018-07-03T22:48:01.616Z,100449.34
2018-07-03T22:50:30.267Z,100450.71
2018-07-03T22:52:58.674Z,100449.75
2018-07-03T22:55:27.017Z,100447.15
2018-07-03T22:57:55.516Z,100444.34
2018-07-03T23:00:24.022Z,100444.63
2018-07-03T23:02:52.437Z,100448.02
2018-07-03T23:05:20.919Z,100449.86
2018-07-03T23:07:49.410Z,100452.05
2018-07-03T23:10:17.830Z,100456.27
2018-07-03T23:12:46.284Z,100452.38
2018-07-03T23:15:14.658Z,100453.83
2018-07-03T23:17:43.048Z,100457.35
2018-07-03T23:20:11.642Z,100456.95
2018-07-03T23:22:40.168Z,100461.25
2018-07-03T23:25:08.575Z,100453.78
2018-07-03T23:27:37.014Z,100455.57
2018-07-03T23:30:05.383Z,100456.01
2018-07-03T23:32:33.845Z,100451.06
2018-07-03T23:35:02.288Z,100450.87
2018-07-03T23:37:30.690Z,100459.25
2018-07-03T23:39:59.051Z,100455.25
2018-07-03T23:42:27.419Z,100458.72
2018-07-03T23:44:55.809Z,100452.47
2018-07-03T23:47:35.457Z,100452.55
2018-07-03T23:50:15.064Z,100453.48
2018-07-03T23:52:54.818Z,100456.08
2018-07-03T23:55:34.589Z,100454.47
2018-07-03T23:58:14.241Z,100450.55
